createdAt,value
2023-03-29T00:01:11.749Z,3.58
2023-03-29T00:04:02.442Z,3.75
2023-03-29T00:09:44.079Z,5.65
2023-03-29T00:12:11.653Z,4.90
2023-03-29T00:14:38.517Z,4.75
2023-03-29T00:17:05.442Z,4.03
2023-03-29T00:19:35.836Z,3.42
2023-03-29T00:22:05.874Z,3.70
2023-03-29T00:30:05.652Z,3.33
2023-03-29T00:32:42.932Z,4.10
2023-03-29T00:35:11.056Z,3.28
2023-03-29T00:40:13.684Z,2.13
2023-03-29T00:45:30.303Z,4.57
2023-03-29T00:50:41.895Z,3.33
2023-03-29T00:53:15.072Z,2.83
2023-03-29T00:55:48.797Z,3.55
2023-03-29T01:01:10.981Z,3.15
2023-03-29T01:06:43.603Z,3.05
2023-03-29T01:09:13.749Z,3.85
2023-03-29T01:15:02.109Z,4.03
2023-03-29T01:17:31.617Z,2.55
2023-03-29T01:23:18.617Z,2.97
2023-03-29T01:28:51.131Z,2.35
2023-03-29T01:31:36.972Z,4.68
2023-03-29T01:34:42.296Z,3.33
2023-03-29T01:39:45.694Z,3.53
2023-03-29T01:42:46.763Z,2.22
2023-03-29T01:45:43.191Z,2.67
2023-03-29T01:48:29.179Z,1.98
2023-03-29T01:51:09.802Z,2.67
2023-03-29T01:53:40.333Z,2.65
2023-03-29T01:56:23.562Z,2.45
2023-03-29T01:58:54.370Z,3.45
2023-03-29T02:01:26.224Z,2.88
2023-03-29T02:03:58.078Z,3.92
2023-03-29T02:06:27.763Z,5.80
2023-03-29T02:14:43.223Z,3.70
2023-03-29T02:20:14.714Z,2.20
2023-03-29T02:25:42.026Z,2.00
2023-03-29T02:28:09.590Z,3.60
2023-03-29T02:37:02.877Z,1.65
2023-03-29T02:42:29.182Z,1.17
2023-03-29T02:47:51.883Z,2.47
2023-03-29T02:50:20.474Z,1.40
2023-03-29T02:53:00.155Z,1.63
2023-03-29T02:55:34.543Z,1.45
2023-03-29T02:58:08.501Z,1.13
2023-03-29T03:00:52.225Z,2.90
2023-03-29T03:06:02.081Z,1.35
2023-03-29T03:08:29.194Z,1.40
2023-03-29T03:10:56.060Z,3.38
2023-03-29T03:16:09.476Z,14.50
2023-03-29T03:21:37.792Z,7.13
2023-03-29T03:24:07.598Z,5.35
2023-03-29T03:26:35.970Z,6.05
2023-03-29T03:29:02.915Z,7.57
2023-03-29T03:34:05.048Z,5.97
2023-03-29T03:36:31.877Z,9.32
2023-03-29T03:41:41.572Z,8.93
2023-03-29T03:46:43.757Z,13.25
2023-03-29T03:49:10.982Z,6.30
2023-03-29T03:54:13.966Z,5.43
2023-03-29T03:56:40.748Z,2.75
2023-03-29T03:59:07.992Z,4.25
2023-03-29T04:01:35.895Z,6.45
2023-03-29T04:04:04.579Z,4.97
2023-03-29T04:09:45.154Z,9.27
2023-03-29T04:15:01.320Z,7.70
2023-03-29T04:20:10.340Z,8.63
2023-03-29T04:22:37.503Z,9.02
2023-03-29T04:33:29.607Z,10.40
2023-03-29T04:35:57.024Z,8.75
2023-03-29T04:38:47.807Z,7.57
2023-03-29T04:41:15.515Z,9.60
2023-03-29T04:43:46.328Z,7.93
2023-03-29T04:46:14.315Z,14.93
2023-03-29T04:48:41.950Z,10.80
2023-03-29T04:54:01.298Z,10.52
2023-03-29T04:56:28.164Z,14.93
2023-03-29T04:58:55.409Z,20.05
2023-03-29T05:01:22.250Z,15.02
2023-03-29T05:03:49.207Z,16.58
2023-03-29T05:06:17.057Z,16.50
2023-03-29T05:08:44.591Z,24.13
2023-03-29T05:11:11.806Z,27.00
2023-03-29T05:13:38.715Z,24.50
2023-03-29T05:16:06.877Z,20.90
2023-03-29T05:21:07.702Z,10.73
2023-03-29T05:26:10.369Z,13.68
2023-03-29T05:28:37.601Z,11.05
2023-03-29T05:34:23.196Z,13.57
2023-03-29T05:36:49.991Z,15.68
2023-03-29T05:39:17.514Z,13.77
2023-03-29T05:41:44.674Z,11.77
2023-03-29T05:46:57.302Z,10.82
2023-03-29T05:49:57.271Z,7.93
2023-03-29T05:52:24.650Z,11.55
2023-03-29T05:54:51.676Z,24.00
2023-03-29T05:57:18.502Z,16.50
2023-03-29T05:59:45.549Z,12.88
2023-03-29T06:05:16.162Z,18.05
2023-03-29T06:07:43.501Z,20.15
2023-03-29T06:10:11.133Z,27.60
2023-03-29T06:12:38.024Z,21.83
2023-03-29T06:15:06.082Z,19.27
2023-03-29T06:17:33.804Z,36.92
2023-03-29T06:20:01.608Z,31.33
2023-03-29T06:22:38.026Z,21.85
2023-03-29T06:27:40.410Z,22.25
2023-03-29T06:30:08.081Z,21.88
2023-03-29T06:33:21.074Z,34.50
2023-03-29T06:38:52.585Z,17.10
2023-03-29T06:41:19.573Z,20.08
2023-03-29T06:43:47.297Z,23.15
2023-03-29T06:46:14.381Z,16.15
2023-03-29T06:54:29.628Z,32.10
2023-03-29T06:56:57.492Z,24.40
2023-03-29T07:02:12.535Z,14.65
2023-03-29T07:04:41.855Z,18.10
2023-03-29T07:07:44.001Z,19.63
2023-03-29T07:10:10.968Z,27.10
2023-03-29T07:12:38.742Z,28.45
2023-03-29T07:15:06.383Z,18.85
2023-03-29T07:17:33.260Z,25.05
2023-03-29T07:22:47.376Z,20.33
2023-03-29T07:25:16.474Z,19.30
2023-03-29T07:27:43.400Z,13.88
2023-03-29T07:33:41.153Z,25.63
2023-03-29T07:36:08.739Z,30.00
2023-03-29T07:49:26.963Z,22.55
2023-03-29T07:51:55.126Z,15.50
2023-03-29T07:54:22.150Z,17.52
2023-03-29T07:56:49.626Z,26.45
2023-03-29T07:59:17.183Z,27.02
2023-03-29T08:01:44.768Z,26.98
2023-03-29T08:04:12.263Z,23.80
2023-03-29T08:09:16.441Z,21.95
2023-03-29T08:11:43.628Z,13.73
2023-03-29T08:14:11.463Z,23.70
2023-03-29T08:16:38.842Z,17.35
2023-03-29T08:19:07.155Z,18.42
2023-03-29T08:22:06.169Z,20.15
2023-03-29T08:24:32.983Z,16.17
2023-03-29T08:26:59.850Z,13.93
2023-03-29T08:29:27.603Z,15.57
2023-03-29T08:31:56.390Z,15.25
2023-03-29T08:37:21.943Z,15.73
2023-03-29T08:39:48.725Z,12.30
2023-03-29T08:42:30.892Z,10.93
2023-03-29T08:48:06.429Z,7.20
2023-03-29T08:53:33.972Z,18.95
2023-03-29T08:56:05.069Z,5.40
2023-03-29T08:58:34.310Z,3.90
2023-03-29T09:04:19.145Z,8.52
2023-03-29T09:06:47.578Z,3.03
2023-03-29T09:09:23.333Z,3.00
2023-03-29T09:14:37.939Z,3.55
2023-03-29T09:20:13.525Z,2.67
2023-03-29T09:23:10.995Z,3.17
2023-03-29T09:29:04.562Z,11.18
2023-03-29T09:31:39.235Z,2.72
2023-03-29T09:34:15.778Z,4.17
2023-03-29T09:39:57.605Z,3.88
2023-03-29T09:42:27.879Z,2.20
2023-03-29T09:45:08.614Z,3.05
2023-03-29T09:47:57.120Z,2.70
2023-03-29T09:53:14.974Z,9.10
2023-03-29T09:55:44.518Z,8.57
2023-03-29T09:58:20.454Z,7.07
2023-03-29T10:00:48.617Z,4.18
2023-03-29T10:03:21.218Z,4.80
2023-03-29T10:05:53.104Z,3.50
2023-03-29T10:08:27.147Z,4.38
2023-03-29T10:10:57.632Z,11.07
2023-03-29T10:13:33.528Z,4.38
2023-03-29T10:16:09.246Z,3.15
2023-03-29T10:18:47.380Z,5.65
2023-03-29T10:26:57.547Z,3.92
2023-03-29T10:29:26.700Z,3.83
2023-03-29T10:31:54.534Z,5.82
2023-03-29T10:34:26.138Z,4.68
2023-03-29T10:37:01.118Z,5.15
2023-03-29T10:39:33.708Z,4.00
2023-03-29T10:42:03.290Z,3.47
2023-03-29T10:44:37.442Z,11.65
2023-03-29T10:47:16.913Z,9.13
2023-03-29T10:49:50.811Z,6.43
2023-03-29T10:52:18.094Z,3.67
2023-03-29T10:54:46.346Z,4.07
2023-03-29T10:57:20.893Z,3.80
2023-03-29T11:00:16.813Z,6.10
2023-03-29T11:02:54.476Z,8.48
2023-03-29T11:05:27.249Z,6.50
2023-03-29T11:08:11.956Z,7.05
2023-03-29T11:10:51.185Z,5.53
2023-03-29T11:13:44.721Z,8.20
2023-03-29T11:19:10.024Z,13.10
2023-03-29T11:21:46.466Z,8.00
2023-03-29T11:27:19.123Z,10.48
2023-03-29T11:30:10.741Z,6.72
2023-03-29T11:32:47.108Z,8.45
2023-03-29T11:35:59.532Z,7.13
2023-03-29T11:38:53.540Z,7.43
2023-03-29T11:41:32.041Z,4.38
2023-03-29T11:44:13.401Z,5.15
2023-03-29T11:46:46.886Z,7.85
2023-03-29T11:49:18.428Z,6.50
2023-03-29T11:51:54.384Z,5.53
2023-03-29T11:54:45.450Z,6.88
2023-03-29T11:57:34.512Z,8.40
2023-03-29T12:00:14.813Z,8.80
2023-03-29T12:02:50.967Z,7.13
2023-03-29T12:05:38.000Z,6.25
2023-03-29T12:08:08.417Z,8.23
2023-03-29T12:10:40.596Z,8.13
2023-03-29T12:13:19.523Z,6.47
2023-03-29T12:15:53.985Z,5.95
2023-03-29T12:18:29.405Z,5.88
2023-03-29T12:21:02.341Z,10.95
2023-03-29T12:23:32.026Z,5.95
2023-03-29T12:28:54.048Z,6.88
2023-03-29T12:31:23.996Z,5.22
2023-03-29T12:34:19.581Z,7.72
2023-03-29T12:37:02.018Z,7.30
2023-03-29T12:39:30.842Z,6.22
2023-03-29T12:42:20.269Z,5.93
2023-03-29T12:44:58.448Z,10.20
2023-03-29T12:47:31.695Z,6.05
2023-03-29T12:50:00.317Z,7.65
2023-03-29T12:52:30.209Z,8.98
2023-03-29T12:55:17.144Z,7.03
2023-03-29T12:58:10.784Z,7.45
2023-03-29T13:00:42.276Z,8.35
2023-03-29T13:03:28.646Z,5.88
2023-03-29T13:06:05.328Z,6.22
2023-03-29T13:08:43.903Z,7.43
2023-03-29T13:11:37.559Z,6.68
2023-03-29T13:14:17.016Z,9.15
2023-03-29T13:16:44.380Z,9.32
2023-03-29T13:19:24.655Z,5.80
2023-03-29T13:22:10.030Z,5.68
2023-03-29T13:24:55.012Z,2.90
2023-03-29T13:27:59.907Z,5.13
2023-03-29T13:30:41.562Z,3.72
2023-03-29T13:33:17.722Z,6.35
2023-03-29T13:36:00.155Z,9.13
2023-03-29T13:38:31.894Z,10.43
2023-03-29T13:41:04.912Z,7.93
2023-03-29T13:43:36.214Z,6.20
2023-03-29T13:46:06.902Z,4.05
2023-03-29T13:49:03.942Z,4.35
2023-03-29T13:51:54.296Z,3.83
2023-03-29T13:54:30.882Z,9.98
2023-03-29T13:57:08.963Z,6.05
2023-03-29T13:59:46.203Z,4.43
2023-03-29T14:05:51.002Z,6.72
2023-03-29T14:08:31.990Z,5.65
2023-03-29T14:11:04.452Z,3.45
2023-03-29T14:13:31.503Z,2.83
2023-03-29T14:16:02.960Z,2.95
2023-03-29T14:18:37.279Z,2.42
2023-03-29T14:21:04.536Z,6.50
2023-03-29T14:23:34.198Z,4.85
2023-03-29T14:26:31.811Z,4.05
2023-03-29T14:29:01.250Z,5.75
2023-03-29T14:31:31.312Z,5.03
2023-03-29T14:34:03.982Z,5.13
2023-03-29T14:36:33.174Z,5.28
2023-03-29T14:39:15.533Z,3.92
2023-03-29T14:41:59.634Z,3.17
2023-03-29T14:44:32.137Z,2.97
2023-03-29T14:47:00.840Z,2.05
2023-03-29T14:49:28.829Z,2.97
2023-03-29T14:51:56.008Z,5.03
2023-03-29T14:54:32.966Z,6.55
2023-03-29T14:57:06.671Z,5.47
2023-03-29T14:59:38.990Z,5.63
2023-03-29T15:02:29.466Z,6.45
2023-03-29T15:05:05.178Z,3.17
2023-03-29T15:07:36.896Z,5.20
2023-03-29T15:10:06.481Z,7.25
2023-03-29T15:12:34.224Z,4.68
2023-03-29T15:15:02.605Z,3.53
2023-03-29T15:17:50.963Z,3.97
2023-03-29T15:20:24.609Z,5.30
2023-03-29T15:23:07.709Z,3.67
2023-03-29T15:25:36.674Z,3.63
2023-03-29T15:28:04.193Z,3.60
2023-03-29T15:30:40.674Z,6.55
2023-03-29T15:33:23.095Z,8.65
2023-03-29T15:35:52.972Z,3.72
2023-03-29T15:38:25.417Z,3.95
2023-03-29T15:41:01.311Z,3.58
2023-03-29T15:43:28.357Z,4.82
2023-03-29T15:45:55.650Z,3.88
2023-03-29T15:48:26.834Z,5.15
2023-03-29T15:50:54.761Z,13.98
2023-03-29T15:53:23.677Z,16.20
2023-03-29T15:55:53.701Z,6.82
2023-03-29T15:58:26.030Z,3.50
2023-03-29T16:01:37.379Z,3.03
2023-03-29T16:04:06.908Z,4.53
2023-03-29T16:06:34.478Z,5.55
2023-03-29T16:09:01.484Z,2.17
2023-03-29T16:11:28.446Z,7.95
2023-03-29T16:13:56.212Z,2.70
2023-03-29T16:16:24.372Z,2.50
2023-03-29T16:18:51.347Z,4.28
2023-03-29T16:21:19.911Z,6.03
2023-03-29T16:23:47.396Z,3.75
2023-03-29T16:26:16.627Z,4.88
2023-03-29T16:28:43.686Z,9.43
2023-03-29T16:31:12.223Z,4.05
2023-03-29T16:33:42.549Z,2.92
2023-03-29T16:36:10.601Z,3.38
2023-03-29T16:38:37.579Z,5.10
2023-03-29T16:41:04.605Z,3.42
2023-03-29T16:43:31.653Z,6.95
2023-03-29T16:45:59.050Z,3.83
2023-03-29T16:48:27.069Z,7.85
2023-03-29T16:50:53.880Z,4.57
2023-03-29T16:53:21.855Z,3.70
2023-03-29T16:55:48.891Z,4.15
2023-03-29T16:58:16.225Z,5.75
2023-03-29T17:03:28.410Z,7.15
2023-03-29T17:14:49.524Z,19.77
2023-03-29T17:20:08.643Z,21.85
2023-03-29T17:25:22.180Z,32.00
2023-03-29T17:33:37.413Z,33.97
2023-03-29T17:36:05.978Z,39.67
2023-03-29T17:38:34.079Z,46.80
2023-03-29T17:41:02.748Z,37.90
2023-03-29T17:46:16.526Z,40.60
2023-03-29T17:48:46.315Z,32.55
2023-03-29T17:51:13.168Z,35.78
2023-03-29T18:01:47.364Z,21.40
2023-03-29T18:04:34.614Z,12.25
2023-03-29T18:07:01.729Z,11.00
2023-03-29T18:09:30.748Z,11.07
2023-03-29T18:14:27.304Z,6.57
2023-03-29T18:16:54.149Z,4.97
2023-03-29T18:27:38.322Z,8.52
2023-03-29T18:30:07.420Z,4.30
2023-03-29T18:32:34.362Z,3.70
2023-03-29T18:37:51.556Z,4.28
2023-03-29T18:40:21.046Z,4.55
2023-03-29T18:42:48.236Z,16.30
2023-03-29T18:45:23.295Z,6.25
2023-03-29T18:47:50.705Z,6.82
2023-03-29T18:50:18.211Z,8.70
2023-03-29T18:55:20.998Z,5.45
2023-03-29T18:57:48.283Z,5.63
2023-03-29T19:00:25.858Z,3.58
2023-03-29T19:03:25.052Z,3.80
2023-03-29T19:09:14.453Z,12.65
2023-03-29T19:11:41.466Z,19.23
2023-03-29T19:16:53.793Z,10.23
2023-03-29T19:19:23.312Z,16.60
2023-03-29T19:21:50.352Z,18.73
2023-03-29T19:24:17.196Z,30.13
2023-03-29T19:26:44.753Z,24.75
2023-03-29T19:29:12.492Z,25.45
2023-03-29T19:31:39.421Z,31.27
2023-03-29T19:34:07.856Z,19.80
2023-03-29T19:36:34.718Z,32.53
2023-03-29T19:39:01.805Z,10.43
2023-03-29T19:52:48.802Z,7.00
2023-03-29T19:58:46.866Z,2.15
2023-03-29T20:11:16.272Z,3.38
2023-03-29T20:20:02.918Z,4.80
2023-03-29T20:22:31.307Z,21.83
2023-03-29T20:33:59.051Z,8.13
2023-03-29T20:39:08.996Z,12.70
2023-03-29T20:41:38.411Z,20.42
2023-03-29T20:46:54.239Z,17.70
2023-03-29T20:49:26.475Z,21.45
2023-03-29T20:51:58.695Z,22.55
2023-03-29T20:54:26.585Z,19.50
2023-03-29T20:56:54.770Z,17.08
2023-03-29T20:59:22.895Z,19.80
2023-03-29T21:01:50.383Z,17.77
2023-03-29T21:04:17.943Z,23.92
2023-03-29T21:06:51.419Z,22.55
2023-03-29T21:09:21.205Z,24.65
2023-03-29T21:11:52.474Z,23.02
2023-03-29T21:14:21.260Z,20.75
2023-03-29T21:16:48.951Z,17.48
2023-03-29T21:19:16.995Z,19.25
2023-03-29T21:21:46.943Z,19.83
2023-03-29T21:24:13.880Z,25.02
2023-03-29T21:26:41.813Z,18.17
2023-03-29T21:29:08.626Z,20.63
2023-03-29T21:31:35.545Z,17.05
2023-03-29T21:34:02.450Z,18.45
2023-03-29T21:36:29.370Z,17.92
2023-03-29T21:38:56.809Z,19.48
2023-03-29T21:41:23.607Z,18.60
2023-03-29T21:43:55.997Z,18.40
2023-03-29T21:46:24.589Z,24.35
2023-03-29T21:48:51.763Z,26.15
2023-03-29T21:51:18.562Z,21.33
2023-03-29T21:53:45.454Z,24.30
2023-03-29T21:56:13.016Z,22.13
2023-03-29T21:58:40.942Z,27.63
2023-03-29T22:01:10.137Z,21.83
2023-03-29T22:03:38.558Z,26.23
2023-03-29T22:06:09.452Z,26.67
2023-03-29T22:08:40.594Z,20.83
2023-03-29T22:11:13.991Z,23.52
2023-03-29T22:13:41.689Z,26.70
2023-03-29T22:16:13.757Z,29.90
2023-03-29T22:18:43.960Z,24.33
2023-03-29T22:21:23.436Z,22.23
2023-03-29T22:23:52.857Z,18.52
2023-03-29T22:26:23.294Z,17.85
2023-03-29T22:28:51.733Z,22.35
2023-03-29T22:31:20.492Z,16.77
2023-03-29T22:33:48.424Z,19.70
2023-03-29T22:36:20.181Z,23.00
2023-03-29T22:38:47.899Z,16.13
2023-03-29T22:41:16.159Z,21.90
2023-03-29T22:43:43.258Z,23.33
2023-03-29T22:46:12.498Z,20.58
2023-03-29T22:48:39.843Z,18.85
2023-03-29T22:51:06.870Z,22.38
2023-03-29T22:53:34.813Z,20.75
2023-03-29T22:56:02.302Z,20.33
2023-03-29T22:58:29.612Z,20.65
2023-03-29T23:00:57.917Z,20.67
2023-03-29T23:03:25.202Z,24.95
2023-03-29T23:05:55.000Z,20.27
2023-03-29T23:08:22.998Z,19.98
2023-03-29T23:10:49.910Z,21.52
2023-03-29T23:13:24.031Z,21.65
2023-03-29T23:15:52.639Z,21.55
2023-03-29T23:18:21.222Z,17.77
2023-03-29T23:20:54.561Z,17.20
2023-03-29T23:23:22.779Z,22.00
2023-03-29T23:25:51.792Z,22.02
2023-03-29T23:28:21.538Z,20.92
2023-03-29T23:31:10.534Z,23.23
2023-03-29T23:33:42.655Z,25.63
2023-03-29T23:36:18.261Z,22.95
2023-03-29T23:38:46.875Z,20.10
2023-03-29T23:41:14.745Z,22.05
2023-03-29T23:43:43.898Z,21.73
2023-03-29T23:46:15.273Z,19.70
2023-03-29T23:48:49.130Z,22.55
2023-03-29T23:51:22.930Z,19.80
2023-03-29T23:53:50.362Z,20.90
2023-03-29T23:56:17.148Z,20.50
2023-03-29T23:58:44.511Z,18.90
